Alexander 3 — SW6137 — position and weather

sailwx.info

Track history (hours):
 
Tides and Currents Weather Stations Pressure Air Temp Water Temp Dewpoint Dewpoint Depression Visibility Wind Speed Wind Dir Waves Ship Positions

Alexander 3

Last reported at 2016-Jul-01 10:33 UTC. Time now 2016-Jul-01 19:04 UTC.
Position N 37°56' E 023°38'.

Length 28 m; draft 5.6 m.

Type: Tug. MMSI: 240733000.

Date/timePositionNaut miles runAvg speedWind from/ knotsBaromVisibWave heightAir tempDewpointWater temp
2016-Jul-01 10:33N 37°56' E 023°38'0 0.0
2016-Jul-01 09:33N 37°56' E 023°38'0 0.2
2016-Jul-01 08:33N 37°56' E 023°38'0 0.0
2016-Jul-01 07:33N 37°56' E 023°38'1 0.6
2016-Jul-01 06:33N 37°56' E 023°37'0 0.2
2016-Jul-01 05:33N 37°56' E 023°37'0 0.0
2016-Jul-01 04:33N 37°56' E 023°37'0 0.0
2016-Jul-01 03:33N 37°56' E 023°37'0 0.0
2016-Jun-29 10:33N 37°56' E 023°37'0 0.0
2016-Jun-29 09:33N 37°56' E 023°37'1 1.5
2016-Jun-29 08:33N 37°57' E 023°37'2 2.0
2016-Jun-29 07:33N 37°56' E 023°35'1 1.2
2016-Jun-29 06:34N 37°57' E 023°35'9 9.0
2016-Jun-29 05:33N 37°52' E 023°25'6 6.4
2016-Jun-29 04:33N 37°58' E 023°23'1 1.2
2016-Jun-29 03:33N 37°58' E 023°24'0 0.0
2016-Jun-29 02:33N 37°58' E 023°24'0 0.0
2016-Jun-29 01:33N 37°58' E 023°24'0 0.0
2016-Jun-29 00:33N 37°58' E 023°24'0 0.0
2016-Jun-28 23:33N 37°58' E 023°24'0 0.0
2016-Jun-28 22:33N 37°58' E 023°24'0 0.0
2016-Jun-28 21:33N 37°58' E 023°24'0 0.0
2016-Jun-28 20:33N 37°58' E 023°24'0 0.0
2016-Jun-28 19:33N 37°58' E 023°24'0 0.0
2016-Jun-28 18:33N 37°58' E 023°24'0 0.0
2016-Jun-28 17:34N 37°58' E 023°24'0 0.0
2016-Jun-28 16:34N 37°58' E 023°24'0 0.0
2016-Jun-28 15:33N 37°58' E 023°24'0 0.0
2016-Jun-28 14:33N 37°58' E 023°24'0 0.0
2016-Jun-28 13:33N 37°58' E 023°24'0 0.0
2016-Jun-28 12:33N 37°58' E 023°24'0 0.0
2016-Jun-28 11:33N 37°58' E 023°24'0 0.0
2016-Jun-28 10:33N 37°58' E 023°24'0 0.0
2016-Jun-28 09:33N 37°58' E 023°24'0 0.0
2016-Jun-28 08:33N 37°58' E 023°24'6 6.4
2016-Jun-28 07:33N 37°52' E 023°27'9 9.3
2016-Jun-28 06:33N 37°56' E 023°37'2 1.0
2016-Jun-28 04:33N 37°57' E 023°35'2 2.0
2016-Jun-28 03:33N 37°56' E 023°38'0 0.0
2016-Jun-27 11:18N 37°56' E 023°37'4 5.2
2016-Jun-27 10:34N 37°58' E 023°33'6 5.8
2016-Jun-27 09:33N 37°58' E 023°26'2 2.1
2016-Jun-27 08:33N 37°58' E 023°23'3 2.5
2016-Jun-27 07:34N 37°55' E 023°23'2 2.3
2016-Jun-27 06:33N 37°53' E 023°24'7 7.4
2016-Jun-27 05:33N 37°55' E 023°33'2 2.0
2016-Jun-27 04:34N 37°56' E 023°35'2 1.8
2016-Jun-27 03:33N 37°56' E 023°37'0 0.0
2016-Jun-25 16:26N 37°56' E 023°37'1 0.7
2016-Jun-25 15:33N 37°56' E 023°37'7 6.6
2016-Jun-25 14:33N 38°02' E 023°32'1 0.9
2016-Jun-25 13:34N 38°02' E 023°31'1 1.1
2016-Jun-25 12:33N 38°01' E 023°31'2 2.1
2016-Jun-25 11:33N 37°59' E 023°33'3 3.4
2016-Jun-25 10:33N 37°57' E 023°37'0 0.0
2016-Jun-25 09:33N 37°57' E 023°37'0 0.0
2016-Jun-25 08:33N 37°57' E 023°37'0 0.0
2016-Jun-25 07:33N 37°57' E 023°37'1 0.9
2016-Jun-25 06:34N 37°57' E 023°36'0 0.5
2016-Jun-25 05:33N 37°57' E 023°35'2 2.2
2016-Jun-25 04:34N 37°56' E 023°37'0 0.0
2016-Jun-25 03:33N 37°56' E 023°37'0 0.0
2016-Jun-24 14:24N 37°56' E 023°37'1 1.8
2016-Jun-24 13:34N 37°57' E 023°37'0 0.0
2016-Jun-24 12:34N 37°57' E 023°37'0 0.0
2016-Jun-24 11:34N 37°57' E 023°37'0 0.0
2016-Jun-24 10:33N 37°57' E 023°37'1 1.1
2016-Jun-24 09:33N 37°57' E 023°35'0 0.3
2016-Jun-24 08:33N 37°57' E 023°35'1 1.1
2016-Jun-24 07:33N 37°57' E 023°37'0 0.0
2016-Jun-24 04:33N 37°57' E 023°37'0 0.0
2016-Jun-24 03:34N 37°57' E 023°37'0 0.0
2016-Jun-23 13:11N 37°57' E 023°37'0 0.0
2016-Jun-23 12:33N 37°57' E 023°37'0 0.0
2016-Jun-23 11:33N 37°57' E 023°37'0 0.0
2016-Jun-23 10:33N 37°57' E 023°37'0 0.0
2016-Jun-23 09:33N 37°57' E 023°37'0 0.0
2016-Jun-23 08:33N 37°57' E 023°37'0 0.0
2016-Jun-23 07:33N 37°57' E 023°37'2 1.0
2016-Jun-23 05:33N 37°56' E 023°35'1 0.9
2016-Jun-23 04:34N 37°56' E 023°36'1 1.2
2016-Jun-23 03:34N 37°55' E 023°37'1 0.1
2016-Jun-22 17:33N 37°56' E 023°37'1010.2
2016-Jun-22 16:34N 37°52' E 023°25'6 6.4
2016-Jun-22 15:33N 37°58' E 023°23'1 1.2
2016-Jun-22 14:33N 37°58' E 023°24'0 0.0
2016-Jun-22 13:33N 37°58' E 023°24'0 0.0
2016-Jun-22 12:34N 37°58' E 023°24'0 0.0
2016-Jun-22 11:33N 37°58' E 023°24'0 0.0
2016-Jun-22 10:33N 37°58' E 023°24'0 0.0
2016-Jun-22 09:34N 37°58' E 023°24'0 0.0
2016-Jun-22 08:33N 37°58' E 023°24'0 0.0
2016-Jun-22 07:33N 37°58' E 023°24'0 0.0
2016-Jun-22 06:33N 37°58' E 023°24'0 0.0
2016-Jun-22 05:33N 37°58' E 023°24'0 0.0
2016-Jun-22 04:33N 37°58' E 023°24'0 0.0
2016-Jun-22 03:33N 37°58' E 023°24'0 0.0
2016-Jun-22 02:33N 37°58' E 023°24'0 0.0
2016-Jun-22 01:33N 37°58' E 023°24'0 0.0
2016-Jun-22 00:33N 37°58' E 023°24'0 0.0
2016-Jun-21 23:33N 37°58' E 023°24'0 0.0
2016-Jun-21 22:33N 37°58' E 023°24'0 0.0
2016-Jun-21 21:33N 37°58' E 023°24'0 0.0
2016-Jun-21 20:33N 37°58' E 023°24'0 0.0
2016-Jun-21 19:33N 37°58' E 023°24'0 0.0
2016-Jun-21 18:34N 37°58' E 023°24'0 0.0
2016-Jun-21 17:33N 37°58' E 023°24'0 0.0
2016-Jun-21 16:33N 37°58' E 023°24'0 0.0
2016-Jun-21 15:33N 37°58' E 023°24'0 0.0
2016-Jun-21 14:33N 37°58' E 023°24'0 0.0
2016-Jun-21 13:33N 37°58' E 023°24'0 0.0
2016-Jun-21 12:33N 37°58' E 023°24'0 0.0
2016-Jun-21 11:33N 37°58' E 023°24'0 0.0
2016-Jun-21 10:33N 37°58' E 023°24'  
Track history (hours):
 
Tides and Currents Weather Stations Pressure Air Temp Water Temp Dewpoint Dewpoint Depression Visibility Wind Speed Wind Dir Waves Ship Positions

Alexander 3

Last reported at 2016-Jul-01 10:33 UTC. Time now 2016-Jul-01 19:04 UTC.
Position N 37°56' E 023°38'.

Length 28 m; draft 5.6 m.

Type: Tug. MMSI: 240733000.

Date/timePositionNaut miles runAvg speedWind from/ knotsBaromVisibWave heightAir tempDewpointWater temp
2016-Jul-01 10:33N 37°56' E 023°38'0 0.0
2016-Jul-01 09:33N 37°56' E 023°38'0 0.2
2016-Jul-01 08:33N 37°56' E 023°38'0 0.0
2016-Jul-01 07:33N 37°56' E 023°38'1 0.6
2016-Jul-01 06:33N 37°56' E 023°37'0 0.2
2016-Jul-01 05:33N 37°56' E 023°37'0 0.0
2016-Jul-01 04:33N 37°56' E 023°37'0 0.0
2016-Jul-01 03:33N 37°56' E 023°37'0 0.0
2016-Jun-29 10:33N 37°56' E 023°37'0 0.0
2016-Jun-29 09:33N 37°56' E 023°37'1 1.5
2016-Jun-29 08:33N 37°57' E 023°37'2 2.0
2016-Jun-29 07:33N 37°56' E 023°35'1 1.2
2016-Jun-29 06:34N 37°57' E 023°35'9 9.0
2016-Jun-29 05:33N 37°52' E 023°25'6 6.4
2016-Jun-29 04:33N 37°58' E 023°23'1 1.2
2016-Jun-29 03:33N 37°58' E 023°24'0 0.0
2016-Jun-29 02:33N 37°58' E 023°24'0 0.0
2016-Jun-29 01:33N 37°58' E 023°24'0 0.0
2016-Jun-29 00:33N 37°58' E 023°24'0 0.0
2016-Jun-28 23:33N 37°58' E 023°24'0 0.0
2016-Jun-28 22:33N 37°58' E 023°24'0 0.0
2016-Jun-28 21:33N 37°58' E 023°24'0 0.0
2016-Jun-28 20:33N 37°58' E 023°24'0 0.0
2016-Jun-28 19:33N 37°58' E 023°24'0 0.0
2016-Jun-28 18:33N 37°58' E 023°24'0 0.0
2016-Jun-28 17:34N 37°58' E 023°24'0 0.0
2016-Jun-28 16:34N 37°58' E 023°24'0 0.0
2016-Jun-28 15:33N 37°58' E 023°24'0 0.0
2016-Jun-28 14:33N 37°58' E 023°24'0 0.0
2016-Jun-28 13:33N 37°58' E 023°24'0 0.0
2016-Jun-28 12:33N 37°58' E 023°24'0 0.0
2016-Jun-28 11:33N 37°58' E 023°24'0 0.0
2016-Jun-28 10:33N 37°58' E 023°24'0 0.0
2016-Jun-28 09:33N 37°58' E 023°24'0 0.0
2016-Jun-28 08:33N 37°58' E 023°24'6 6.4
2016-Jun-28 07:33N 37°52' E 023°27'9 9.3
2016-Jun-28 06:33N 37°56' E 023°37'2 1.0
2016-Jun-28 04:33N 37°57' E 023°35'2 2.0
2016-Jun-28 03:33N 37°56' E 023°38'0 0.0
2016-Jun-27 11:18N 37°56' E 023°37'4 5.2
2016-Jun-27 10:34N 37°58' E 023°33'6 5.8
2016-Jun-27 09:33N 37°58' E 023°26'2 2.1
2016-Jun-27 08:33N 37°58' E 023°23'3 2.5
2016-Jun-27 07:34N 37°55' E 023°23'2 2.3
2016-Jun-27 06:33N 37°53' E 023°24'7 7.4
2016-Jun-27 05:33N 37°55' E 023°33'2 2.0
2016-Jun-27 04:34N 37°56' E 023°35'2 1.8
2016-Jun-27 03:33N 37°56' E 023°37'0 0.0
2016-Jun-25 16:26N 37°56' E 023°37'1 0.7
2016-Jun-25 15:33N 37°56' E 023°37'7 6.6
2016-Jun-25 14:33N 38°02' E 023°32'1 0.9
2016-Jun-25 13:34N 38°02' E 023°31'1 1.1
2016-Jun-25 12:33N 38°01' E 023°31'2 2.1
2016-Jun-25 11:33N 37°59' E 023°33'3 3.4
2016-Jun-25 10:33N 37°57' E 023°37'0 0.0
2016-Jun-25 09:33N 37°57' E 023°37'0 0.0
2016-Jun-25 08:33N 37°57' E 023°37'0 0.0
2016-Jun-25 07:33N 37°57' E 023°37'1 0.9
2016-Jun-25 06:34N 37°57' E 023°36'0 0.5
2016-Jun-25 05:33N 37°57' E 023°35'2 2.2
2016-Jun-25 04:34N 37°56' E 023°37'0 0.0
2016-Jun-25 03:33N 37°56' E 023°37'0 0.0
2016-Jun-24 14:24N 37°56' E 023°37'1 1.8
2016-Jun-24 13:34N 37°57' E 023°37'0 0.0
2016-Jun-24 12:34N 37°57' E 023°37'0 0.0
2016-Jun-24 11:34N 37°57' E 023°37'0 0.0
2016-Jun-24 10:33N 37°57' E 023°37'1 1.1
2016-Jun-24 09:33N 37°57' E 023°35'0 0.3
2016-Jun-24 08:33N 37°57' E 023°35'1 1.1
2016-Jun-24 07:33N 37°57' E 023°37'0 0.0
2016-Jun-24 04:33N 37°57' E 023°37'0 0.0
2016-Jun-24 03:34N 37°57' E 023°37'0 0.0
2016-Jun-23 13:11N 37°57' E 023°37'0 0.0
2016-Jun-23 12:33N 37°57' E 023°37'0 0.0
2016-Jun-23 11:33N 37°57' E 023°37'0 0.0
2016-Jun-23 10:33N 37°57' E 023°37'0 0.0
2016-Jun-23 09:33N 37°57' E 023°37'0 0.0
2016-Jun-23 08:33N 37°57' E 023°37'0 0.0
2016-Jun-23 07:33N 37°57' E 023°37'2 1.0
2016-Jun-23 05:33N 37°56' E 023°35'1 0.9
2016-Jun-23 04:34N 37°56' E 023°36'1 1.2
2016-Jun-23 03:34N 37°55' E 023°37'1 0.1
2016-Jun-22 17:33N 37°56' E 023°37'1010.2
2016-Jun-22 16:34N 37°52' E 023°25'6 6.4
2016-Jun-22 15:33N 37°58' E 023°23'1 1.2
2016-Jun-22 14:33N 37°58' E 023°24'0 0.0
2016-Jun-22 13:33N 37°58' E 023°24'0 0.0
2016-Jun-22 12:34N 37°58' E 023°24'0 0.0
2016-Jun-22 11:33N 37°58' E 023°24'0 0.0
2016-Jun-22 10:33N 37°58' E 023°24'0 0.0
2016-Jun-22 09:34N 37°58' E 023°24'0 0.0
2016-Jun-22 08:33N 37°58' E 023°24'0 0.0
2016-Jun-22 07:33N 37°58' E 023°24'0 0.0
2016-Jun-22 06:33N 37°58' E 023°24'0 0.0
2016-Jun-22 05:33N 37°58' E 023°24'0 0.0
2016-Jun-22 04:33N 37°58' E 023°24'0 0.0
2016-Jun-22 03:33N 37°58' E 023°24'0 0.0
2016-Jun-22 02:33N 37°58' E 023°24'0 0.0
2016-Jun-22 01:33N 37°58' E 023°24'0 0.0
2016-Jun-22 00:33N 37°58' E 023°24'0 0.0
2016-Jun-21 23:33N 37°58' E 023°24'0 0.0
2016-Jun-21 22:33N 37°58' E 023°24'0 0.0
2016-Jun-21 21:33N 37°58' E 023°24'0 0.0
2016-Jun-21 20:33N 37°58' E 023°24'0 0.0
2016-Jun-21 19:33N 37°58' E 023°24'0 0.0
2016-Jun-21 18:34N 37°58' E 023°24'0 0.0
2016-Jun-21 17:33N 37°58' E 023°24'0 0.0
2016-Jun-21 16:33N 37°58' E 023°24'0 0.0
2016-Jun-21 15:33N 37°58' E 023°24'0 0.0
2016-Jun-21 14:33N 37°58' E 023°24'0 0.0
2016-Jun-21 13:33N 37°58' E 023°24'0 0.0
2016-Jun-21 12:33N 37°58' E 023°24'0 0.0
2016-Jun-21 11:33N 37°58' E 023°24'0 0.0
2016-Jun-21 10:33N 37°58' E 023°24'  

Dump ship's entire track history